Surface/Precipitation History
04/16/2014 13:13  to  4/17/2014 13:13
Change End Date:
Date/Time
(MDT)
Sf
Temp Chem Water Layer Surface Precipitation
Sf Sub Frz Factor Pct Depth IcePct Cond Salin Type Intens Accum Rate
04/17/2014 12:55 Dry 68.9F 40F - - - - - 37 mhos 2662 None None - -
04/17/2014 12:48 Dry 70.3F 40F - - - - - 37 mhos 2626 None None - -
04/17/2014 12:38 Dry 70.9F 40F - - - - - 37 mhos 2614 None None - -
04/17/2014 12:28 Dry 69.1F 40F - - - - - 37 mhos 2657 None None - -
04/17/2014 12:25 Dry 69.1F 40F - - - - - 37 mhos 2657 None None - -
04/17/2014 12:18 Dry 68.7F 40F - - - - - 37 mhos 2669 None None - -
04/17/2014 12:08 Dry 68.2F 40F - - - - - 37 mhos 2680 None None - -
04/17/2014 11:58 Dry 67.3F 40F - - - - - 37 mhos 2705 None None - -
04/17/2014 11:55 Dry 67.6F 40F - - - - - 37 mhos 2697 None None - -
04/17/2014 11:48 Dry 67.8F 40F - - - - - 37 mhos 2688 None None - -
04/17/2014 11:38 Dry 66.2F 40F - - - - - 37 mhos 2733 None None - -
04/17/2014 11:28 Dry 63.3F 40F - - - - - 36 mhos 2799 None None - -
04/17/2014 11:25 Dry 63.1F 40F - - - - - 36 mhos 2804 None None - -
04/17/2014 11:18 Dry 62.1F 40F - - - - - 36 mhos 2813 None None - -
04/17/2014 11:08 Dry 59.9F 40F - - - - - 36 mhos 2866 None None - -
Date/Time
(MDT)
Sf
Temp Chem Water Layer Surface Precipitation
Sf Sub Frz Factor Pct Depth IcePct Cond Salin Type Intens Accum Rate
04/17/2014 10:57 Dry 58.8F 40F - - - - - 36 mhos 2897 None None - -
04/17/2014 10:56 Dry 58.6F 40F - - - - - 36 mhos 2907 None None - -
04/17/2014 10:47 Dry 57.9F 40F - - - - - 36 mhos 2928 None None - -
04/17/2014 10:37 Dry 56.3F 40F - - - - - 36 mhos 2981 None None - -
04/17/2014 10:27 Dry 54.3F 40F - - - - - 35 mhos 2990 None None - -
04/17/2014 10:25 Dry 54.0F 40F - - - - - 35 mhos 3001 None None - -
04/17/2014 10:17 Dry 53.1F 41F - - - - - 35 mhos 2993 None None - -
04/17/2014 10:07 Dry 51.3F 41F - - - - - 34 mhos 3015 None None - -
04/17/2014 09:57 Dry 49.8F 41F - - - - - 33 mhos 2974 None None - -
04/17/2014 09:55 Dry 49.3F 41F - - - - - 33 mhos 2952 None None - -
04/17/2014 09:47 Dry 47.8F 41F - - - - - 32 mhos 2911 None None - -
04/17/2014 09:37 Dry 46.2F 41F - - - - - 31 mhos 2816 None None - -
04/17/2014 09:27 Dry 44.2F 41F - - - - - 29 mhos 2707 None None - -
04/17/2014 09:25 Dry 43.9F 41F - - - - - 29 mhos 2704 None None - -
04/17/2014 09:17 Dry 42.6F 41F - - - - - 27 mhos 2563 None None - -
Date/Time
(MDT)
Sf
Temp Chem Water Layer Surface Precipitation
Sf Sub Frz Factor Pct Depth IcePct Cond Salin Type Intens Accum Rate
04/17/2014 09:07 Dry 41.0F 41F - - - - - 22 mhos 2079 None None - -
04/17/2014 08:57 Dry 39.0F 41F - - - - - 16 mhos 1517 None None - -
04/17/2014 08:55 Dry 38.5F 41F - - - - - 15 mhos 1430 None None - -
04/17/2014 08:47 Dry 37.0F 41F - - - - - 13 mhos 1271 None None - -
04/17/2014 08:37 Dry 35.2F 41F - - - - - 11 mhos 1076 None None - -
04/17/2014 08:27 Dry 33.4F 41F - - - - - 8 mhos 829 None None - -
04/17/2014 08:25 Dry 32.9F 41F - - - - - 7 mhos 749 None None - -
04/17/2014 08:17 Dry 31.6F 41F - - - - - 6 mhos 662 None None - -
04/17/2014 08:07 Dry 30.0F 41F - - - - - 5 mhos 529 None None - -
04/17/2014 07:57 Dry 28.6F 42F - - - - - 4 mhos 475 None None - -
04/17/2014 07:55 Dry 28.4F 41F - - - - - 4 mhos 480 None None - -
04/17/2014 07:47 Dry 27.0F 42F - - - - - 4 mhos 540 None None - -
04/17/2014 07:36 Ice Watch 25.7F 42F - 85 - - - 4 mhos 605 None None - -
04/17/2014 07:26 Ice Watch 25.3F 42F - 90 - - - 4 mhos 654 None None - -
04/17/2014 07:26 Ice Watch 25.2F 42F - 90 - - - 4 mhos 668 None None - -
Date/Time
(MDT)
Sf
Temp Chem Water Layer Surface Precipitation
Sf Sub Frz Factor Pct Depth IcePct Cond Salin Type Intens Accum Rate
04/17/2014 07:16 Ice Watch 24.6F 42F - 95 - - - 4 mhos 725 None None - -
04/17/2014 07:06 Ice Watch 24.4F 42F - 95 - - - 4 mhos 767 None None - -
04/17/2014 06:56 Ice Watch 24.6F 42F - 95 - - - 4 mhos 770 None None - -
04/17/2014 06:55 Ice Watch 24.6F 42F - 95 - - - 4 mhos 760 None None - -
04/17/2014 06:46 Ice Watch 24.8F 42F - 95 - - - 4 mhos 754 None None - -
04/17/2014 06:40 Ice Watch 25.2F 42F - 95 - - - 4 mhos 725 None None - -
04/17/2014 06:36 Ice Watch 25.2F 42F - 95 - - - 4 mhos 720 None None - -
04/17/2014 06:26 Ice Watch 25.0F 42F - 95 - - - 4 mhos 745 None None - -
04/17/2014 06:16 Ice Watch 24.8F 42F - 95 - - - 4 mhos 736 None None - -
04/17/2014 06:10 Ice Watch 25.0F 42F - 90 - - - 4 mhos 720 None None - -
04/17/2014 06:06 Ice Watch 25.0F 42F - 95 - - - 4 mhos 748 None None - -
04/17/2014 05:56 Ice Watch 25.0F 42F - 95 - - - 4 mhos 770 None None - -
04/17/2014 05:46 Ice Watch 25.3F 42F - 95 - - - 5 mhos 792 None None - -
04/17/2014 05:40 Ice Watch 25.5F 42F - 95 - - - 5 mhos 808 None None - -
04/17/2014 05:36 Ice Watch 25.5F 42F - 95 - - - 5 mhos 833 None None - -
Date/Time
(MDT)
Sf
Temp Chem Water Layer Surface Precipitation
Sf Sub Frz Factor Pct Depth IcePct Cond Salin Type Intens Accum Rate
04/17/2014 05:26 Dry 25.7F 42F - - - - - 5 mhos 864 None None - -
04/17/2014 05:16 Dry 26.1F 42F - - - - - 6 mhos 907 None None - -
04/17/2014 05:10 Dry 26.2F 43F - - - - - 6 mhos 918 None None - -
04/17/2014 05:06 Dry 26.4F 43F - - - - - 6 mhos 987 None None - -
04/17/2014 04:56 Dry 26.8F 43F - - - - - 7 mhos 1037 None None - -
04/17/2014 04:46 Dry 27.0F 43F - - - - - 8 mhos 1246 None None - -
04/17/2014 04:40 Dry 27.1F 43F - - - - - 9 mhos 1278 None None - -
04/17/2014 04:36 Dry 27.1F 43F - - - - - 9 mhos 1289 None None - -
04/17/2014 04:26 Dry 27.3F 43F - - - - - 9 mhos 1306 None None - -
04/17/2014 04:16 Dry 27.7F 43F - - - - - 9 mhos 1289 None None - -
04/17/2014 04:10 Dry 27.7F 43F - - - - - 10 mhos 1326 None None - -
04/17/2014 04:05 Dry 27.9F 43F - - - - - 10 mhos 1315 None None - -
04/17/2014 03:55 Dry 28.0F 43F - - - - - 10 mhos 1394 None None - -
04/17/2014 03:45 Dry 28.4F 43F - - - - - 11 mhos 1440 None None - -
04/17/2014 03:40 Dry 28.6F 43F - - - - - 11 mhos 1425 None None - -
Date/Time
(MDT)
Sf
Temp Chem Water Layer Surface Precipitation
Sf Sub Frz Factor Pct Depth IcePct Cond Salin Type Intens Accum Rate
04/17/2014 03:35 Dry 28.8F 43F - - - - - 11 mhos 1437 None None - -
04/17/2014 03:25 Dry 28.9F 43F - - - - - 11 mhos 1404 None None - -
04/17/2014 03:15 Dry 29.3F 43F - - - - - 12 mhos 1415 None None - -
04/17/2014 03:10 Dry 29.5F 43F - - - - - 12 mhos 1438 None None - -
04/17/2014 03:05 Dry 29.7F 43F - - - - - 13 mhos 1499 None None - -
04/17/2014 02:55 Dry 30.0F 43F - - - - - 14 mhos 1536 None None - -
04/17/2014 02:45 Dry 30.2F 43F - - - - - 14 mhos 1561 None None - -
04/17/2014 02:40 Dry 30.4F 43F - - - - - 14 mhos 1570 None None - -
04/17/2014 02:35 Dry 30.6F 43F - - - - - 15 mhos 1593 None None - -
04/17/2014 02:25 Dry 30.7F 43F - - - - - 15 mhos 1626 None None - -
04/17/2014 02:15 Dry 31.1F 43F - - - - - 16 mhos 1718 None None - -
04/17/2014 02:10 Dry 31.3F 43F - - - - - 15 mhos 1632 None None - -
04/17/2014 02:05 Dry 31.3F 43F - - - - - 16 mhos 1676 None None - -
04/17/2014 01:55 Dry 31.6F 43F - - - - - 16 mhos 1703 None None - -
04/17/2014 01:45 Dry 31.8F 44F - - - - - 16 mhos 1736 None None - -
Date/Time
(MDT)
Sf
Temp Chem Water Layer Surface Precipitation
Sf Sub Frz Factor Pct Depth IcePct Cond Salin Type Intens Accum Rate
04/17/2014 01:40 Dry 32.2F 44F - - - - - 17 mhos 1811 None None - -
04/17/2014 01:35 Dry 32.2F 44F - - - - - 18 mhos 1865 None None - -
04/17/2014 01:25 Dry 32.5F 44F - - - - - 19 mhos 1969 None None - -
04/17/2014 01:15 Dry 33.1F 44F - - - - - 19 mhos 2034 None None - -
04/17/2014 01:10 Dry 33.4F 44F - - - - - 19 mhos 2025 None None - -
04/17/2014 01:05 Dry 33.6F 44F - - - - - 16 mhos 1657 None None - -
04/17/2014 00:55 Dry 33.8F 44F - - - - - 17 mhos 1749 None None - -
04/17/2014 00:44 Dry 34.3F 44F - - - - - 18 mhos 1887 None None - -
04/17/2014 00:40 Dry 34.3F 44F - - - - - 20 mhos 2042 None None - -
04/17/2014 00:34 Dry 34.7F 44F - - - - - 20 mhos 2095 None None - -
04/17/2014 00:25 Dry 35.1F 44F - - - - - 22 mhos 2255 None None - -
04/17/2014 00:24 Dry 35.1F 44F - - - - - 22 mhos 2255 None None - -
04/17/2014 00:14 Dry 35.6F 44F - - - - - 24 mhos 2443 None None - -
04/17/2014 00:04 Dry 36.5F 44F - - - - - 25 mhos 2513 None None - -
04/16/2014 23:57 Dry 37.0F 44F - - - - - 25 mhos 2557 None None - -
Date/Time
(MDT)
Sf
Temp Chem Water Layer Surface Precipitation
Sf Sub Frz Factor Pct Depth IcePct Cond Salin Type Intens Accum Rate
04/16/2014 23:54 Dry 37.2F 44F - - - - - 25 mhos 2546 None None - -
04/16/2014 23:44 Dry 37.9F 44F - - - - - 25 mhos 2535 None None - -
04/16/2014 23:34 Dry 38.8F 44F - - - - - 26 mhos 2577 None None - -
04/16/2014 23:26 Dry 39.7F 44F - - - - - 26 mhos 2614 None None - -
04/16/2014 23:24 Dry 39.7F 44F - - - - - 27 mhos 2678 None None - -
04/16/2014 23:14 Dry 40.5F 44F - - - - - 28 mhos 2712 None None - -
04/16/2014 23:04 Dry 40.8F 44F - - - - - 32 mhos 3219 None None - -
04/16/2014 22:55 Dry 41.0F 44F - - - - - 32 mhos 3134 None None - -
04/16/2014 22:54 Dry 41.0F 44F - - - - - 32 mhos 3194 None None - -
04/16/2014 22:44 Dry 41.2F 44F - - - - - 32 mhos 3160 None None - -
04/16/2014 22:34 Dry 41.7F 44F - - - - - 34 mhos 3330 None None - -
04/16/2014 22:25 Dry 42.3F 44F - - - - - 34 mhos 3330 None None - -
04/16/2014 22:24 Dry 42.3F 44F - - - - - 34 mhos 3301 None None - -
04/16/2014 22:14 Dry 43.2F 44F - - - - - 34 mhos 3332 None None - -
04/16/2014 22:04 Dry 43.3F 43F - - - - - 34 mhos 3348 None None - -
Date/Time
(MDT)
Sf
Temp Chem Water Layer Surface Precipitation
Sf Sub Frz Factor Pct Depth IcePct Cond Salin Type Intens Accum Rate
04/16/2014 21:55 Dry 43.5F 43F - - - - - 35 mhos 3412 None None - -
04/16/2014 21:54 Dry 43.5F 43F - - - - - 35 mhos 3429 None None - -
04/16/2014 21:44 Dry 43.7F 43F - - - - - 36 mhos 3471 None None - -
04/16/2014 21:33 Dry 44.1F 43F - - - - - 36 mhos 3506 None None - -
04/16/2014 21:25 Dry 44.8F 43F - - - - - 36 mhos 3502 None None - -
04/16/2014 21:23 Dry 44.8F 43F - - - - - 36 mhos 3502 None None - -
04/16/2014 21:13 Dry 45.3F 43F - - - - - 37 mhos 3498 None None - -
04/16/2014 21:03 Dry 45.9F 43F - - - - - 36 mhos 3450 None None - -
04/16/2014 20:55 Dry 46.2F 43F - - - - - 36 mhos 3410 None None - -
04/16/2014 20:53 Dry 46.2F 43F - - - - - 36 mhos 3379 None None - -
04/16/2014 20:43 Dry 46.8F 43F - - - - - 36 mhos 3407 None None - -
04/16/2014 20:33 Dry 47.5F 43F - - - - - 37 mhos 3429 None None - -
04/16/2014 20:25 Dry 47.8F 43F - - - - - 37 mhos 3434 None None - -
04/16/2014 20:23 Dry 48.0F 43F - - - - - 37 mhos 3426 None None - -
04/16/2014 20:13 Dry 48.9F 43F - - - - - 37 mhos 3385 None None - -
Date/Time
(MDT)
Sf
Temp Chem Water Layer Surface Precipitation
Sf Sub Frz Factor Pct Depth IcePct Cond Salin Type Intens Accum Rate
04/16/2014 20:03 Dry 49.8F 43F - - - - - 37 mhos 3376 None None - -
04/16/2014 19:55 Dry 50.4F 43F - - - - - 38 mhos 3374 None None - -
04/16/2014 19:53 Dry 50.7F 43F - - - - - 38 mhos 3386 None None - -
04/16/2014 19:43 Dry 51.6F 42F - - - - - 38 mhos 3347 None None - -
04/16/2014 19:33 Dry 52.3F 42F - - - - - 38 mhos 3320 None None - -
04/16/2014 19:25 Dry 52.9F 42F - - - - - 38 mhos 3295 None None - -
04/16/2014 19:23 Dry 53.2F 42F - - - - - 38 mhos 3282 None None - -
04/16/2014 19:13 Dry 54.0F 42F - - - - - 38 mhos 3251 None None - -
04/16/2014 19:03 Dry 55.2F 42F - - - - - 38 mhos 3202 None None - -
04/16/2014 18:55 Dry 56.7F 42F - - - - - 38 mhos 3149 None None - -
04/16/2014 18:53 Dry 56.7F 42F - - - - - 38 mhos 3149 None None - -
04/16/2014 18:43 Dry 56.3F 42F - - - - - 38 mhos 3161 None None - -
04/16/2014 18:33 Dry 57.9F 42F - - - - - 38 mhos 3104 None None - -
04/16/2014 18:25 Dry 57.2F 42F - - - - - 38 mhos 3132 None None - -
04/16/2014 18:23 Dry 57.2F 42F - - - - - 38 mhos 3132 None None - -
Date/Time
(MDT)
Sf
Temp Chem Water Layer Surface Precipitation
Sf Sub Frz Factor Pct Depth IcePct Cond Salin Type Intens Accum Rate
04/16/2014 18:12 Dry 58.5F 42F - - - - - 38 mhos 3087 None None - -
04/16/2014 18:02 Dry 59.9F 41F - - - - - 38 mhos 3016 None None - -
04/16/2014 17:56 Dry 60.6F 41F - - - - - 38 mhos 2990 None None - -
04/16/2014 17:52 Dry 60.6F 41F - - - - - 38 mhos 2990 None None - -
04/16/2014 17:42 Dry 61.5F 41F - - - - - 38 mhos 2960 None None - -
04/16/2014 17:32 Dry 61.9F 41F - - - - - 38 mhos 2952 None None - -
04/16/2014 17:26 Dry 62.8F 41F - - - - - 38 mhos 2902 None None - -
04/16/2014 17:22 Dry 63.3F 41F - - - - - 38 mhos 2888 None None - -
04/16/2014 17:12 Dry 65.1F 41F - - - - - 38 mhos 2834 None None - -
04/16/2014 17:02 Dry 66.0F 41F - - - - - 38 mhos 2808 None None - -
04/16/2014 16:55 Dry 65.1F 40F - - - - - 38 mhos 2835 None None - -
04/16/2014 16:52 Dry 65.5F 40F - - - - - 38 mhos 2827 None None - -
04/16/2014 16:42 Dry 66.4F 40F - - - - - 38 mhos 2801 None None - -
04/16/2014 16:32 Dry 67.8F 40F - - - - - 37 mhos 2742 None None - -
04/16/2014 16:25 Dry 66.4F 40F - - - - - 37 mhos 2781 None None - -
Date/Time
(MDT)
Sf
Temp Chem Water Layer Surface Precipitation
Sf Sub Frz Factor Pct Depth IcePct Cond Salin Type Intens Accum Rate
04/16/2014 16:22 Dry 67.1F 40F - - - - - 38 mhos 2780 None None - -
04/16/2014 16:12 Dry 66.9F 40F - - - - - 37 mhos 2765 None None - -
04/16/2014 16:02 Dry 67.6F 40F - - - - - 38 mhos 2767 None None - -
04/16/2014 15:56 Dry 65.7F 39F - - - - - 38 mhos 2820 None None - -
04/16/2014 15:52 Dry 66.2F 39F - - - - - 38 mhos 2807 None None - -
04/16/2014 15:42 Dry 66.2F 39F - - - - - 37 mhos 2789 None None - -
04/16/2014 15:32 Dry 67.8F 39F - - - - - 37 mhos 2745 None None - -
04/16/2014 15:25 Dry 69.6F 39F - - - - - 37 mhos 2683 None None - -
04/16/2014 15:22 Dry 72.3F 39F - - - - - 37 mhos 2598 None None - -
04/16/2014 15:12 Dry 72.5F 39F - - - - - 37 mhos 2591 None None - -
04/16/2014 15:02 Dry 72.9F 39F - - - - - 37 mhos 2567 None None - -
04/16/2014 14:56 Dry 76.3F 39F - - - - - 37 mhos 2471 None None - -
04/16/2014 14:52 Dry 80.1F 39F - - - - - 37 mhos 2407 None None - -
04/16/2014 14:41 Dry 77.5F 39F - - - - - 37 mhos 2430 None None - -
04/16/2014 14:31 Dry 81.7F 38F - - - - - 37 mhos 2341 None None - -
Date/Time
(MDT)
Sf
Temp Chem Water Layer Surface Precipitation
Sf Sub Frz Factor Pct Depth IcePct Cond Salin Type Intens Accum Rate
04/16/2014 14:25 Dry 80.2F 38F - - - - - 37 mhos 2369 None None - -
04/16/2014 14:21 Dry 78.1F 38F - - - - - 36 mhos 2412 None None - -
04/16/2014 14:11 Dry 79.0F 38F - - - - - 37 mhos 2409 None None - -
04/16/2014 14:01 Dry 75.9F 38F - - - - - 37 mhos 2490 None None - -
04/16/2014 13:55 Dry 75.9F 38F - - - - - 37 mhos 2473 None None - -
04/16/2014 13:51 Dry 75.7F 38F - - - - - 37 mhos 2494 None None - -
04/16/2014 13:41 Dry 73.8F 38F - - - - - 37 mhos 2539 None None - -
04/16/2014 13:31 Dry 75.4F 38F - - - - - 37 mhos 2504 None None - -
04/16/2014 13:25 Dry 73.2F 38F - - - - - 37 mhos 2553 None None - -
04/16/2014 13:21 Dry 77.5F 38F - - - - - 37 mhos 2438 None None - -
Change End Date:
Copyright © 1998-2005 Surface Systems, Inc.
All Rights Reserved
Send comments about the data to:
SCAN Web ® is a registered trademark of Surface Systems, Inc.
SCAN Web Version 5.6